Time;durP1;ratioP1;P1;durP2;ratioP2;P2;SDS_P1;SDS_P2;PMS_P1;PMS_P2;Temp;Humidity;BMP_temperature;BMP_pressure;BME280_temperature;BME280_humidity;BME280_pressure;Samples;Min_cycle;Max_cycle;Signal;HPM_P1;HPM_P2
2023/10/30 00:01:54;;;;;;;;;;;12.10;92.30;;;;;;5103477;28;26947;-61
2023/10/30 00:04:35;;;;;;;;;;;12.20;92.30;;;;;;5099692;28;20370;-63
2023/10/30 00:07:08;;;;;;;;;;;12.10;92.20;;;;;;5100140;28;20022;-64
2023/10/30 00:09:41;;;;;;;;;;;12.20;92.20;;;;;;5098036;28;19938;-62
2023/10/30 00:12:14;;;;;;;;;;;12.10;92.10;;;;;;5099481;28;19928;-63
2023/10/30 00:14:50;;;;;;;;;;;12.10;92.20;;;;;;5102723;28;20386;-63
2023/10/30 00:17:23;;;;;;;;;;;12.10;92.20;;;;;;5103601;28;19934;-63
2023/10/30 00:19:56;;;;;;;;;;;12.10;92.20;;;;;;5102358;27;19927;-63
2023/10/30 00:22:29;;;;;;;;;;;12.10;92.20;;;;;;5096242;28;19935;-62
2023/10/30 00:25:02;;;;;;;;;;;12.10;92.30;;;;;;5102819;28;19939;-62
2023/10/30 00:27:36;;;;;;;;;;;12.10;92.30;;;;;;5102395;28;19931;-62
2023/10/30 00:30:11;;;;;;;;;;;12.10;92.30;;;;;;5100882;28;19931;-62
2023/10/30 00:32:44;;;;;;;;;;;12.20;92.20;;;;;;5103107;28;19927;-63
2023/10/30 00:35:17;;;;;;;;;;;12.20;92.20;;;;;;5102399;28;20374;-62
2023/10/30 00:37:51;;;;;;;;;;;12.10;92.20;;;;;;5100459;28;19934;-63
2023/10/30 00:40:26;;;;;;;;;;;12.10;92.20;;;;;;5094491;28;20367;-63
2023/10/30 00:42:52;;;;;;;;;;;12.10;92.10;;;;;;5101136;28;19930;-62
2023/10/30 00:45:27;;;;;;;;;;;12.20;92.20;;;;;;5103055;28;20030;-62
2023/10/30 00:48:01;;;;;;;;;;;12.20;92.10;;;;;;5101015;27;19985;-62
2023/10/30 00:50:28;;;;;;;;;;;12.10;92.10;;;;;;5098778;28;19927;-63
2023/10/30 00:53:01;;;;;;;;;;;12.20;92.20;;;;;;5098827;28;20030;-64
2023/10/30 00:55:36;;;;;;;;;;;12.20;92.10;;;;;;5098195;28;19931;-63
2023/10/30 00:58:10;;;;;;;;;;;12.20;92.10;;;;;;5098378;28;19931;-64
2023/10/30 01:00:44;;;;;;;;;;;12.10;92.10;;;;;;5102715;28;20438;-63
2023/10/30 01:03:19;;;;;;;;;;;12.10;92.10;;;;;;5099413;28;19924;-64
2023/10/30 01:05:56;;;;;;;;;;;12.20;92.10;;;;;;5099044;28;19934;-64
2023/10/30 01:08:30;;;;;;;;;;;12.10;92.20;;;;;;5098537;27;19977;-63
2023/10/30 01:11:03;;;;;;;;;;;12.10;92.10;;;;;;5101362;28;19928;-63
2023/10/30 01:13:36;;;;;;;;;;;12.20;92.20;;;;;;5096306;28;19932;-64
2023/10/30 01:16:10;;;;;;;;;;;12.20;92.10;;;;;;5092777;28;19939;-64
2023/10/30 01:18:43;;;;;;;;;;;12.20;92.10;;;;;;5097214;28;19924;-63
2023/10/30 01:21:17;;;;;;;;;;;12.20;92.10;;;;;;5100906;27;19927;-64
2023/10/30 01:23:50;;;;;;;;;;;12.20;92.10;;;;;;5099895;27;19930;-63
2023/10/30 01:26:24;;;;;;;;;;;12.10;92.00;;;;;;5098214;28;20401;-63
2023/10/30 01:28:57;;;;;;;;;;;12.20;92.00;;;;;;5098726;28;19939;-64
2023/10/30 01:31:31;;;;;;;;;;;12.20;92.10;;;;;;5084196;28;19981;-64
2023/10/30 01:34:05;;;;;;;;;;;12.20;92.00;;;;;;5097192;28;19966;-64
2023/10/30 01:36:38;;;;;;;;;;;12.20;92.10;;;;;;5099726;28;20432;-63
2023/10/30 01:39:11;;;;;;;;;;;12.20;92.00;;;;;;5111521;27;19999;-64
2023/10/30 01:41:45;;;;;;;;;;;12.20;92.10;;;;;;5086672;28;19928;-63
2023/10/30 01:44:19;;;;;;;;;;;12.20;92.10;;;;;;5098834;28;20331;-64
2023/10/30 01:46:53;;;;;;;;;;;12.20;92.10;;;;;;5096754;28;19962;-64
2023/10/30 01:49:27;;;;;;;;;;;12.20;92.00;;;;;;5095387;27;19932;-62
2023/10/30 01:52:00;;;;;;;;;;;12.20;92.20;;;;;;5100414;28;19928;-62
2023/10/30 01:54:33;;;;;;;;;;;12.10;92.10;;;;;;5099851;28;19931;-63
2023/10/30 01:57:07;;;;;;;;;;;12.20;92.10;;;;;;5098136;28;19927;-63
2023/10/30 01:59:40;;;;;;;;;;;12.20;92.10;;;;;;5089486;28;19924;-63
2023/10/30 02:02:15;;;;;;;;;;;12.20;92.20;;;;;;5098124;28;19923;-61
2023/10/30 02:04:49;;;;;;;;;;;12.20;92.20;;;;;;5096614;28;20025;-62
2023/10/30 02:07:22;;;;;;;;;;;12.20;92.20;;;;;;5095764;28;19939;-63
2023/10/30 02:09:55;;;;;;;;;;;12.20;92.30;;;;;;5095004;28;19939;-63
2023/10/30 02:12:28;;;;;;;;;;;12.20;92.10;;;;;;5113604;27;20370;-63
2023/10/30 02:15:01;;;;;;;;;;;12.20;92.30;;;;;;5104743;27;20294;-63
2023/10/30 02:17:35;;;;;;;;;;;12.20;92.30;;;;;;5094703;28;20000;-62
2023/10/30 02:20:10;;;;;;;;;;;12.20;92.30;;;;;;5097046;28;19928;-64
2023/10/30 02:22:43;;;;;;;;;;;12.20;92.30;;;;;;5098766;28;19927;-63
2023/10/30 02:25:19;;;;;;;;;;;12.20;92.30;;;;;;5091530;28;20391;-64
2023/10/30 02:27:53;;;;;;;;;;;12.20;92.40;;;;;;5100442;28;20303;-64
2023/10/30 02:30:26;;;;;;;;;;;12.10;92.40;;;;;;5095962;27;19931;-63
2023/10/30 02:32:59;;;;;;;;;;;12.20;92.40;;;;;;5096852;27;19931;-63
2023/10/30 02:35:32;;;;;;;;;;;12.20;92.30;;;;;;5095852;28;19959;-64
2023/10/30 02:38:06;;;;;;;;;;;12.20;92.40;;;;;;5099173;28;19972;-67
2023/10/30 02:40:40;;;;;;;;;;;12.10;92.40;;;;;;5095122;28;19933;-64
2023/10/30 02:43:07;;;;;;;;;;;12.20;92.40;;;;;;5099297;28;19998;-63
2023/10/30 02:45:40;;;;;;;;;;;12.20;92.50;;;;;;5090019;28;19934;-63
2023/10/30 02:48:13;;;;;;;;;;;12.20;92.40;;;;;;5077457;28;20419;-60
2023/10/30 02:50:46;;;;;;;;;;;12.20;92.60;;;;;;5089800;28;19924;-60
2023/10/30 02:53:19;;;;;;;;;;;12.20;92.60;;;;;;5108401;28;19931;-61
2023/10/30 02:55:54;;;;;;;;;;;12.20;92.50;;;;;;5096031;28;19928;-60
2023/10/30 02:58:27;;;;;;;;;;;12.10;92.50;;;;;;5096086;28;19977;-59
2023/10/30 03:01:00;;;;;;;;;;;12.10;92.60;;;;;;5092300;28;19934;-61
2023/10/30 03:03:33;;;;;;;;;;;12.10;92.60;;;;;;5097776;28;19928;-60
2023/10/30 03:06:06;;;;;;;;;;;12.10;92.60;;;;;;5097832;28;19928;-62
2023/10/30 03:08:40;;;;;;;;;;;12.20;92.60;;;;;;5095788;28;19925;-61
2023/10/30 03:11:14;;;;;;;;;;;12.20;92.50;;;;;;5096142;28;19975;-60
2023/10/30 03:13:48;;;;;;;;;;;12.20;92.60;;;;;;5094208;28;19928;-61
2023/10/30 03:16:21;;;;;;;;;;;12.20;92.60;;;;;;5090009;28;19981;-69
2023/10/30 03:18:54;;;;;;;;;;;12.20;92.50;;;;;;5108716;28;19936;-71
2023/10/30 03:21:27;;;;;;;;;;;12.10;92.60;;;;;;5096658;28;20046;-69
2023/10/30 03:24:00;;;;;;;;;;;12.10;92.40;;;;;;5086848;28;20473;-69
2023/10/30 03:26:34;;;;;;;;;;;12.10;92.50;;;;;;5091314;28;20473;-71
2023/10/30 03:29:08;;;;;;;;;;;12.20;92.40;;;;;;5093766;28;19932;-70
2023/10/30 03:31:41;;;;;;;;;;;12.10;92.50;;;;;;5082668;28;20471;-70
2023/10/30 03:34:16;;;;;;;;;;;12.10;92.60;;;;;;5095645;28;19924;-70
2023/10/30 03:36:50;;;;;;;;;;;12.10;92.50;;;;;;5094055;28;19931;-71
2023/10/30 03:39:24;;;;;;;;;;;12.00;92.50;;;;;;5098013;28;20060;-70
2023/10/30 03:41:58;;;;;;;;;;;12.10;92.40;;;;;;5094150;28;20357;-70
2023/10/30 03:44:32;;;;;;;;;;;12.10;92.50;;;;;;5093411;28;20307;-69
2023/10/30 03:47:05;;;;;;;;;;;12.10;92.60;;;;;;5096400;28;20401;-71
2023/10/30 03:49:40;;;;;;;;;;;12.10;92.50;;;;;;5099571;28;19928;-69
2023/10/30 03:52:14;;;;;;;;;;;12.10;92.60;;;;;;5086888;28;19929;-69
2023/10/30 03:54:59;;;;;;;;;;;12.10;92.60;;;;;;5097311;28;19986;-71
2023/10/30 03:57:33;;;;;;;;;;;12.10;92.60;;;;;;5096109;28;19960;-68
2023/10/30 04:00:08;;;;;;;;;;;12.10;92.60;;;;;;5096977;28;19981;-68
2023/10/30 04:02:41;;;;;;;;;;;12.10;92.60;;;;;;5096602;28;19928;-70
2023/10/30 04:05:14;;;;;;;;;;;12.00;92.60;;;;;;5096189;28;19932;-69
2023/10/30 04:07:47;;;;;;;;;;;12.00;92.60;;;;;;5097412;28;19924;-69
2023/10/30 04:10:14;;;;;;;;;;;12.00;92.50;;;;;;5092772;28;19932;-69
2023/10/30 04:12:48;;;;;;;;;;;12.00;92.50;;;;;;5096929;28;20008;-69
2023/10/30 04:15:22;;;;;;;;;;;12.00;92.40;;;;;;5096135;28;20042;-69
2023/10/30 04:17:56;;;;;;;;;;;12.00;92.50;;;;;;5101376;28;19928;-69
2023/10/30 04:20:29;;;;;;;;;;;11.90;92.50;;;;;;5100791;28;19931;-70
2023/10/30 04:23:02;;;;;;;;;;;12.00;92.60;;;;;;5101468;27;19925;-70
2023/10/30 04:25:35;;;;;;;;;;;12.00;92.60;;;;;;5099953;28;20022;-69
2023/10/30 04:28:09;;;;;;;;;;;11.90;92.60;;;;;;5098876;28;19930;-68
2023/10/30 04:30:43;;;;;;;;;;;11.90;92.60;;;;;;5100038;28;19981;-70
2023/10/30 04:33:16;;;;;;;;;;;11.90;92.60;;;;;;5099177;28;19935;-69
2023/10/30 04:35:49;;;;;;;;;;;11.90;92.60;;;;;;5101846;28;19928;-69
2023/10/30 04:38:16;;;;;;;;;;;11.90;92.60;;;;;;5099131;27;19932;-69
2023/10/30 04:40:49;;;;;;;;;;;11.90;92.60;;;;;;5097122;28;19932;-69
2023/10/30 04:43:24;;;;;;;;;;;11.90;92.60;;;;;;5097243;28;19935;-69
2023/10/30 04:45:57;;;;;;;;;;;11.90;92.60;;;;;;5099898;27;20002;-69
2023/10/30 04:48:30;;;;;;;;;;;11.90;92.60;;;;;;5096437;27;20007;-69
2023/10/30 04:51:04;;;;;;;;;;;11.90;92.60;;;;;;5100117;27;20027;-69
2023/10/30 04:53:39;;;;;;;;;;;11.90;92.60;;;;;;5100898;28;19969;-69
2023/10/30 04:56:12;;;;;;;;;;;11.90;92.60;;;;;;5098316;28;19924;-69
2023/10/30 04:58:46;;;;;;;;;;;11.90;92.60;;;;;;5097390;28;20879;-70
2023/10/30 05:01:20;;;;;;;;;;;11.80;92.60;;;;;;5097651;27;19955;-68
2023/10/30 05:03:53;;;;;;;;;;;11.80;92.50;;;;;;5096587;28;20379;-69
2023/10/30 05:06:26;;;;;;;;;;;11.90;92.50;;;;;;5097163;28;19939;-69
2023/10/30 05:08:59;;;;;;;;;;;11.90;92.50;;;;;;5093703;28;19939;-68
2023/10/30 05:11:32;;;;;;;;;;;11.80;92.30;;;;;;5096015;28;20454;-70
2023/10/30 05:14:06;;;;;;;;;;;11.80;92.30;;;;;;5100872;28;19924;-69
2023/10/30 05:16:40;;;;;;;;;;;11.80;92.30;;;;;;5098262;28;19951;-69
2023/10/30 05:19:13;;;;;;;;;;;11.80;92.30;;;;;;5096285;27;19934;-69
2023/10/30 05:21:46;;;;;;;;;;;11.80;92.30;;;;;;5102380;27;20014;-69
2023/10/30 05:24:19;;;;;;;;;;;11.80;92.30;;;;;;5097701;28;19932;-69
2023/10/30 05:26:53;;;;;;;;;;;11.80;92.30;;;;;;5096811;28;20460;-69
2023/10/30 05:29:27;;;;;;;;;;;11.80;92.30;;;;;;5096202;28;19939;-69
2023/10/30 05:32:06;;;;;;;;;;;11.80;92.40;;;;;;5098131;28;19948;-70
2023/10/30 05:34:39;;;;;;;;;;;11.80;92.50;;;;;;5094336;28;19924;-69
2023/10/30 05:37:19;;;;;;;;;;;11.80;92.50;;;;;;5101274;28;19932;-69
2023/10/30 05:39:52;;;;;;;;;;;11.70;92.50;;;;;;5097718;28;20474;-69
2023/10/30 05:42:25;;;;;;;;;;;11.80;92.50;;;;;;5099512;28;20301;-68
2023/10/30 05:44:59;;;;;;;;;;;11.70;92.50;;;;;;5098244;28;19928;-69
2023/10/30 05:47:33;;;;;;;;;;;11.80;92.50;;;;;;5094378;28;20449;-69
2023/10/30 05:50:00;;;;;;;;;;;11.70;92.40;;;;;;5098093;28;20374;-68
2023/10/30 05:52:33;;;;;;;;;;;11.80;92.50;;;;;;5099309;28;20838;-69
2023/10/30 05:55:07;;;;;;;;;;;11.80;92.40;;;;;;5099963;28;19932;-69
2023/10/30 05:57:42;;;;;;;;;;;11.80;92.30;;;;;;5100187;28;19934;-70
2023/10/30 06:00:24;;;;;;;;;;;11.80;92.30;;;;;;5099225;28;20025;-68
2023/10/30 06:03:03;;;;;;;;;;;11.70;92.30;;;;;;5097775;28;19931;-69
2023/10/30 06:05:37;;;;;;;;;;;11.80;92.30;;;;;;5103565;28;19977;-68
2023/10/30 06:08:10;;;;;;;;;;;11.70;92.40;;;;;;5096415;28;20290;-69
2023/10/30 06:10:43;;;;;;;;;;;11.70;92.50;;;;;;5095363;28;19924;-69
2023/10/30 06:13:16;;;;;;;;;;;11.70;92.40;;;;;;5099138;28;19928;-69
2023/10/30 06:15:50;;;;;;;;;;;11.70;92.50;;;;;;5098793;28;19927;-69
2023/10/30 06:18:24;;;;;;;;;;;11.70;92.50;;;;;;5096105;28;20002;-68
2023/10/30 06:21:00;;;;;;;;;;;11.70;92.50;;;;;;5095056;28;19934;-69
2023/10/30 06:23:33;;;;;;;;;;;11.70;92.50;;;;;;5100562;28;19976;-69
2023/10/30 06:26:08;;;;;;;;;;;11.70;92.50;;;;;;5099420;28;19927;-60
2023/10/30 06:28:42;;;;;;;;;;;11.70;92.50;;;;;;5098547;28;19928;-59
2023/10/30 06:31:17;;;;;;;;;;;11.70;92.40;;;;;;5087285;28;19932;-61
2023/10/30 06:33:51;;;;;;;;;;;11.70;92.40;;;;;;5094885;28;19932;-60
2023/10/30 06:36:24;;;;;;;;;;;11.70;92.40;;;;;;5099683;28;19935;-60
2023/10/30 06:38:57;;;;;;;;;;;11.70;92.40;;;;;;5098186;28;19932;-59
2023/10/30 06:41:30;;;;;;;;;;;11.70;92.50;;;;;;5092521;28;19932;-60
2023/10/30 06:44:03;;;;;;;;;;;11.70;92.50;;;;;;5097941;28;19936;-61
2023/10/30 06:46:38;;;;;;;;;;;11.70;92.50;;;;;;5101523;28;20370;-61
2023/10/30 06:49:11;;;;;;;;;;;11.70;92.60;;;;;;5090344;28;19950;-61
2023/10/30 06:51:44;;;;;;;;;;;11.70;92.50;;;;;;5095430;28;19975;-60
2023/10/30 06:54:17;;;;;;;;;;;11.70;92.60;;;;;;5099084;28;19928;-61
2023/10/30 06:56:50;;;;;;;;;;;11.80;92.60;;;;;;5097573;28;19928;-60
2023/10/30 06:59:23;;;;;;;;;;;11.80;92.60;;;;;;5091939;28;19931;-59
2023/10/30 07:01:57;;;;;;;;;;;11.80;92.60;;;;;;5098427;28;19931;-59
2023/10/30 07:04:24;;;;;;;;;;;11.80;92.60;;;;;;5098308;28;19924;-59
2023/10/30 07:06:57;;;;;;;;;;;11.80;92.50;;;;;;5093493;28;19950;-60
2023/10/30 07:09:30;;;;;;;;;;;11.80;92.40;;;;;;5096639;28;19935;-60
2023/10/30 07:12:03;;;;;;;;;;;11.80;92.40;;;;;;5097325;28;19973;-60
2023/10/30 07:14:37;;;;;;;;;;;11.80;92.50;;;;;;5098838;28;19924;-60
2023/10/30 07:17:11;;;;;;;;;;;11.90;92.40;;;;;;5097588;28;19931;-60
2023/10/30 07:19:46;;;;;;;;;;;11.80;92.50;;;;;;5098547;28;19928;-60
2023/10/30 07:22:19;;;;;;;;;;;11.80;92.60;;;;;;5096381;28;19946;-61
2023/10/30 07:24:53;;;;;;;;;;;11.80;92.70;;;;;;5096894;28;19928;-61
2023/10/30 07:27:26;;;;;;;;;;;11.80;92.60;;;;;;5091799;28;19932;-59
2023/10/30 07:29:53;;;;;;;;;;;11.80;92.60;;;;;;5091073;28;19938;-60
2023/10/30 07:32:27;;;;;;;;;;;11.80;92.60;;;;;;5097139;28;20408;-59
2023/10/30 07:35:01;;;;;;;;;;;11.90;92.50;;;;;;5092376;28;19924;-61
2023/10/30 07:37:35;;;;;;;;;;;11.90;92.50;;;;;;5092006;28;20015;-62
2023/10/30 07:40:09;;;;;;;;;;;11.90;92.60;;;;;;5099049;28;19928;-63
2023/10/30 07:42:42;;;;;;;;;;;11.90;92.60;;;;;;5094220;28;19938;-62
2023/10/30 07:45:15;;;;;;;;;;;11.90;92.70;;;;;;5100752;28;19930;-63
2023/10/30 07:47:49;;;;;;;;;;;11.90;92.60;;;;;;5097731;28;19924;-62
2023/10/30 07:50:23;;;;;;;;;;;12.00;92.60;;;;;;5100486;27;19928;-62
2023/10/30 07:52:56;;;;;;;;;;;11.90;92.50;;;;;;5096855;28;20057;-62
2023/10/30 07:55:30;;;;;;;;;;;11.90;92.60;;;;;;5102019;28;19928;-62
2023/10/30 07:58:04;;;;;;;;;;;11.90;92.50;;;;;;5098622;28;19985;-62
2023/10/30 08:00:38;;;;;;;;;;;11.90;92.50;;;;;;5096394;28;19924;-63
2023/10/30 08:03:14;;;;;;;;;;;11.90;92.60;;;;;;5103281;28;19935;-62
2023/10/30 08:05:47;;;;;;;;;;;11.90;92.70;;;;;;5100622;28;19927;-63
2023/10/30 08:08:17;;;;;;;;;;;11.90;92.70;;;;;;5097319;28;19928;-64
2023/10/30 08:10:50;;;;;;;;;;;11.90;92.70;;;;;;5093224;28;19961;-62
2023/10/30 08:13:23;;;;;;;;;;;11.90;92.70;;;;;;5102536;27;19928;-63
2023/10/30 08:15:56;;;;;;;;;;;11.90;92.70;;;;;;5102681;28;20031;-63
2023/10/30 08:18:31;;;;;;;;;;;11.90;92.70;;;;;;5102207;28;19928;-63
2023/10/30 08:21:04;;;;;;;;;;;11.90;92.70;;;;;;5084575;28;19931;-63
2023/10/30 08:23:37;;;;;;;;;;;11.90;92.60;;;;;;5104073;28;19924;-63
2023/10/30 08:26:10;;;;;;;;;;;11.90;92.70;;;;;;5103967;27;20417;-63
2023/10/30 08:28:44;;;;;;;;;;;12.00;92.60;;;;;;5105254;28;19931;-62
2023/10/30 08:31:17;;;;;;;;;;;12.00;92.60;;;;;;5105417;28;19923;-62
2023/10/30 08:33:51;;;;;;;;;;;12.00;92.50;;;;;;5103282;27;19927;-63
2023/10/30 08:36:25;;;;;;;;;;;12.00;92.50;;;;;;5104125;28;20375;-63
2023/10/30 08:38:58;;;;;;;;;;;12.10;92.50;;;;;;5103086;28;20390;-63
2023/10/30 08:41:33;;;;;;;;;;;12.10;92.40;;;;;;5102564;28;20019;-62
2023/10/30 08:44:06;;;;;;;;;;;12.20;92.30;;;;;;5101456;28;19931;-65
2023/10/30 08:46:40;;;;;;;;;;;12.30;92.20;;;;;;5104004;28;19931;-70
2023/10/30 08:49:15;;;;;;;;;;;12.30;92.30;;;;;;5100759;28;19967;-69
2023/10/30 08:51:48;;;;;;;;;;;12.40;92.30;;;;;;5100949;28;20341;-71
2023/10/30 08:54:22;;;;;;;;;;;12.40;92.30;;;;;;5101485;28;19969;-70
2023/10/30 08:56:55;;;;;;;;;;;12.50;92.20;;;;;;5101864;28;19935;-63
2023/10/30 08:59:28;;;;;;;;;;;12.40;92.30;;;;;;5102630;28;19924;-62
2023/10/30 09:02:01;;;;;;;;;;;12.40;92.50;;;;;;5101898;28;19923;-62
2023/10/30 09:04:36;;;;;;;;;;;12.40;92.50;;;;;;5102363;27;19924;-63
2023/10/30 09:07:09;;;;;;;;;;;12.40;92.40;;;;;;5099718;27;19935;-63
2023/10/30 09:09:42;;;;;;;;;;;12.40;92.40;;;;;;5100928;28;19938;-61
2023/10/30 09:12:15;;;;;;;;;;;12.40;92.40;;;;;;5101147;28;20279;-63
2023/10/30 09:14:48;;;;;;;;;;;12.30;92.30;;;;;;5101962;28;20029;-63
2023/10/30 09:17:21;;;;;;;;;;;12.30;92.40;;;;;;5101217;28;19928;-63
2023/10/30 09:19:56;;;;;;;;;;;12.30;92.40;;;;;;5100254;28;19935;-63
2023/10/30 09:22:29;;;;;;;;;;;12.30;92.60;;;;;;5101906;28;19930;-64
2023/10/30 09:25:02;;;;;;;;;;;12.30;92.40;;;;;;5114388;27;19933;-62
2023/10/30 09:27:35;;;;;;;;;;;12.30;92.40;;;;;;5101658;28;19923;-63
2023/10/30 09:30:10;;;;;;;;;;;12.40;92.40;;;;;;5101687;28;19935;-62
2023/10/30 09:32:43;;;;;;;;;;;12.50;92.40;;;;;;5101821;28;19954;-63
2023/10/30 09:35:18;;;;;;;;;;;12.60;92.30;;;;;;5101771;27;19931;-62
2023/10/30 09:37:51;;;;;;;;;;;12.60;92.20;;;;;;5102661;28;19949;-61
2023/10/30 09:40:26;;;;;;;;;;;12.60;92.30;;;;;;5100031;28;19928;-62
2023/10/30 09:42:52;;;;;;;;;;;12.70;92.20;;;;;;5101523;27;19969;-63
2023/10/30 09:45:27;;;;;;;;;;;12.80;92.20;;;;;;5101474;28;19932;-62
2023/10/30 09:48:00;;;;;;;;;;;12.80;92.20;;;;;;5100179;28;20016;-63
2023/10/30 09:50:37;;;;;;;;;;;12.90;92.20;;;;;;5097948;28;19967;-62
2023/10/30 09:53:11;;;;;;;;;;;13.00;92.20;;;;;;5099662;28;19924;-62
2023/10/30 09:55:45;;;;;;;;;;;13.10;92.10;;;;;;5100092;28;19939;-63
2023/10/30 09:58:18;;;;;;;;;;;13.10;92.10;;;;;;5099653;28;19964;-64
2023/10/30 10:00:52;;;;;;;;;;;13.20;92.10;;;;;;5100333;28;19939;-64
2023/10/30 10:03:25;;;;;;;;;;;13.20;92.00;;;;;;5099969;28;19935;-65
2023/10/30 10:06:00;;;;;;;;;;;13.30;91.90;;;;;;5098418;28;19975;-63
2023/10/30 10:08:33;;;;;;;;;;;13.40;91.80;;;;;;5095787;28;19935;-63
2023/10/30 10:11:07;;;;;;;;;;;13.40;91.70;;;;;;5098485;28;19935;-64
2023/10/30 10:13:43;;;;;;;;;;;13.40;91.70;;;;;;5099569;28;19924;-63
2023/10/30 10:16:17;;;;;;;;;;;13.50;91.80;;;;;;5099764;28;19924;-64
2023/10/30 10:18:50;;;;;;;;;;;13.50;91.80;;;;;;5099379;28;19989;-64
2023/10/30 10:21:25;;;;;;;;;;;13.50;91.70;;;;;;5098632;28;19930;-64
2023/10/30 10:23:58;;;;;;;;;;;13.50;91.70;;;;;;5099389;28;20365;-65
2023/10/30 10:26:31;;;;;;;;;;;13.50;91.70;;;;;;5100251;28;19924;-63
2023/10/30 10:29:14;;;;;;;;;;;13.50;91.60;;;;;;5099785;28;19931;-63
2023/10/30 10:31:47;;;;;;;;;;;13.50;91.80;;;;;;5100033;28;19928;-64
2023/10/30 10:34:20;;;;;;;;;;;13.50;91.80;;;;;;5099327;28;19928;-64
2023/10/30 10:36:58;;;;;;;;;;;13.50;91.70;;;;;;5100744;28;19930;-64
2023/10/30 10:39:46;;;;;;;;;;;13.60;91.70;;;;;;5099211;28;19959;-63
2023/10/30 10:42:20;;;;;;;;;;;13.60;91.70;;;;;;5100430;28;19924;-63
2023/10/30 10:44:54;;;;;;;;;;;13.70;91.60;;;;;;5100286;28;19924;-63
2023/10/30 10:47:28;;;;;;;;;;;13.70;91.50;;;;;;5099365;28;19930;-63
2023/10/30 10:50:03;;;;;;;;;;;13.80;91.60;;;;;;5100568;28;19966;-63
2023/10/30 10:52:39;;;;;;;;;;;13.90;91.30;;;;;;5099507;28;19928;-61
2023/10/30 10:55:13;;;;;;;;;;;13.90;91.40;;;;;;5099517;28;19985;-63
2023/10/30 10:57:57;;;;;;;;;;;13.90;91.30;;;;;;5099687;28;19950;-63
2023/10/30 11:00:30;;;;;;;;;;;13.90;91.40;;;;;;5099461;28;19927;-62
2023/10/30 11:03:06;;;;;;;;;;;13.90;91.50;;;;;;5092764;28;19928;-63
2023/10/30 11:05:40;;;;;;;;;;;13.90;91.60;;;;;;5099106;28;19927;-63
2023/10/30 11:08:21;;;;;;;;;;;13.90;91.60;;;;;;5093349;28;19928;-61
2023/10/30 11:10:56;;;;;;;;;;;13.90;91.60;;;;;;5096054;28;20133;-62
2023/10/30 11:13:32;;;;;;;;;;;13.90;91.60;;;;;;5086061;28;20321;-61
2023/10/30 11:16:10;;;;;;;;;;;14.00;91.60;;;;;;5103695;28;20283;-62
2023/10/30 11:18:43;;;;;;;;;;;14.10;91.60;;;;;;5102267;28;19928;-60
2023/10/30 11:21:17;;;;;;;;;;;14.10;91.60;;;;;;5103511;28;20375;-59
2023/10/30 11:23:52;;;;;;;;;;;14.10;91.60;;;;;;5101753;28;19969;-58
2023/10/30 11:26:38;;;;;;;;;;;14.10;91.60;;;;;;5099039;28;19928;-59
2023/10/30 11:29:13;;;;;;;;;;;14.10;91.60;;;;;;5096624;28;21123;-60
2023/10/30 11:31:53;;;;;;;;;;;14.20;91.50;;;;;;5102437;28;20008;-61
2023/10/30 11:34:31;;;;;;;;;;;14.20;91.30;;;;;;5096584;28;19939;-60
2023/10/30 11:37:07;;;;;;;;;;;14.30;91.20;;;;;;5088780;28;20302;-60
2023/10/30 11:39:43;;;;;;;;;;;14.40;91.00;;;;;;5092212;28;19940;-60
2023/10/30 11:42:33;;;;;;;;;;;14.40;90.90;;;;;;5101971;27;19934;-58
2023/10/30 11:45:16;;;;;;;;;;;14.40;90.90;;;;;;5101408;27;19928;-61
2023/10/30 11:47:50;;;;;;;;;;;14.40;90.80;;;;;;5093439;28;20362;-60
2023/10/30 11:50:26;;;;;;;;;;;14.50;90.70;;;;;;5093258;28;19927;-60
2023/10/30 11:52:53;;;;;;;;;;;14.50;90.70;;;;;;5102333;28;19963;-61
2023/10/30 11:55:30;;;;;;;;;;;14.50;90.70;;;;;;5097643;28;19977;-61
2023/10/30 11:58:03;;;;;;;;;;;14.50;90.80;;;;;;5103719;28;20027;-61
2023/10/30 12:00:30;;;;;;;;;;;14.50;90.70;;;;;;5104086;28;20352;-61
2023/10/30 12:03:03;;;;;;;;;;;14.50;90.70;;;;;;5100296;28;19924;-61
2023/10/30 12:05:37;;;;;;;;;;;14.50;90.70;;;;;;5097251;28;19939;-61
2023/10/30 12:08:11;;;;;;;;;;;14.50;90.80;;;;;;5097302;28;20018;-61
2023/10/30 12:10:48;;;;;;;;;;;14.40;90.70;;;;;;5116861;27;19924;-60
2023/10/30 12:13:22;;;;;;;;;;;14.40;90.60;;;;;;5102169;27;19930;-60
2023/10/30 12:15:55;;;;;;;;;;;14.40;90.60;;;;;;5101642;28;19973;-61
2023/10/30 12:18:29;;;;;;;;;;;14.40;90.50;;;;;;5104055;28;19928;-59
2023/10/30 12:21:02;;;;;;;;;;;14.30;90.50;;;;;;5102578;28;19924;-63
2023/10/30 12:23:44;;;;;;;;;;;14.40;90.50;;;;;;5101974;28;20412;-62
2023/10/30 12:26:19;;;;;;;;;;;14.40;90.50;;;;;;5102829;28;19968;-63
2023/10/30 12:28:57;;;;;;;;;;;14.50;90.30;;;;;;5099078;27;19941;-63
2023/10/30 12:31:31;;;;;;;;;;;14.50;90.30;;;;;;5100915;28;20306;-63
2023/10/30 12:34:11;;;;;;;;;;;14.50;90.30;;;;;;5100407;27;19958;-63
2023/10/30 12:36:44;;;;;;;;;;;14.60;90.00;;;;;;5102047;28;19931;-63
2023/10/30 12:39:18;;;;;;;;;;;14.60;89.90;;;;;;5102184;28;19924;-63
2023/10/30 12:41:55;;;;;;;;;;;14.60;89.80;;;;;;5102752;28;19924;-63
2023/10/30 12:44:29;;;;;;;;;;;14.60;89.90;;;;;;5101193;28;19935;-62
2023/10/30 12:47:02;;;;;;;;;;;14.60;89.80;;;;;;5101269;28;19928;-63
2023/10/30 12:49:36;;;;;;;;;;;14.60;89.90;;;;;;5099237;28;19924;-63
2023/10/30 12:52:09;;;;;;;;;;;14.60;89.70;;;;;;5100498;28;19924;-62
2023/10/30 12:54:43;;;;;;;;;;;14.60;89.70;;;;;;5117644;27;19960;-62
2023/10/30 12:57:18;;;;;;;;;;;14.60;89.80;;;;;;5095912;28;19931;-63
2023/10/30 12:59:52;;;;;;;;;;;14.70;89.80;;;;;;5099899;28;19924;-62
2023/10/30 13:02:26;;;;;;;;;;;14.60;89.50;;;;;;5096028;28;20523;-62
2023/10/30 13:05:06;;;;;;;;;;;14.70;89.10;;;;;;5098872;28;19928;-62
2023/10/30 13:07:41;;;;;;;;;;;14.70;89.20;;;;;;5100578;28;20313;-63
2023/10/30 13:10:14;;;;;;;;;;;14.70;89.10;;;;;;5099774;28;19958;-63
2023/10/30 13:12:49;;;;;;;;;;;14.70;89.00;;;;;;5099219;28;19939;-63
2023/10/30 13:15:22;;;;;;;;;;;14.70;89.00;;;;;;5100238;28;19957;-63
2023/10/30 13:17:56;;;;;;;;;;;14.70;89.00;;;;;;5100956;28;19958;-63
2023/10/30 13:20:29;;;;;;;;;;;14.70;89.10;;;;;;5095922;28;19924;-63
2023/10/30 13:23:03;;;;;;;;;;;14.70;89.00;;;;;;5112952;27;19924;-63
2023/10/30 13:25:36;;;;;;;;;;;14.70;89.20;;;;;;5097133;28;19931;-62
2023/10/30 13:28:11;;;;;;;;;;;14.70;89.20;;;;;;5094716;28;19924;-64
2023/10/30 13:30:44;;;;;;;;;;;14.70;89.40;;;;;;5101570;28;19972;-64
2023/10/30 13:33:17;;;;;;;;;;;14.70;89.40;;;;;;5099974;28;19977;-63
2023/10/30 13:35:51;;;;;;;;;;;14.60;89.50;;;;;;5102413;27;19928;-64
2023/10/30 13:38:25;;;;;;;;;;;14.60;89.60;;;;;;5101354;28;19924;-64
2023/10/30 13:40:59;;;;;;;;;;;14.60;89.70;;;;;;5102180;27;20014;-64
2023/10/30 13:43:34;;;;;;;;;;;14.60;89.80;;;;;;5101429;28;19924;-64
2023/10/30 13:46:08;;;;;;;;;;;14.50;89.90;;;;;;5101172;28;20379;-64
2023/10/30 13:48:42;;;;;;;;;;;14.50;89.90;;;;;;5099379;28;20420;-65
2023/10/30 13:51:15;;;;;;;;;;;14.40;90.00;;;;;;5115118;27;20333;-64
2023/10/30 13:53:50;;;;;;;;;;;14.40;90.10;;;;;;5098316;28;19924;-64
2023/10/30 13:56:22;;;;;;;;;;;14.40;90.00;;;;;;5099802;28;20040;-64
2023/10/30 13:58:57;;;;;;;;;;;14.40;90.00;;;;;;5099530;28;20020;-63
2023/10/30 14:01:30;;;;;;;;;;;14.30;90.00;;;;;;5100353;28;20274;-64
2023/10/30 14:03:57;;;;;;;;;;;14.30;90.10;;;;;;5095668;28;19927;-64
2023/10/30 14:06:30;;;;;;;;;;;14.30;90.10;;;;;;5096346;28;19932;-65
2023/10/30 14:09:04;;;;;;;;;;;14.30;90.20;;;;;;5095756;28;19924;-64
2023/10/30 14:11:37;;;;;;;;;;;14.20;90.20;;;;;;5094954;28;19929;-64
2023/10/30 14:14:12;;;;;;;;;;;14.20;90.20;;;;;;5094464;28;19928;-64
2023/10/30 14:16:45;;;;;;;;;;;14.20;90.20;;;;;;5097471;28;19927;-64
2023/10/30 14:19:18;;;;;;;;;;;14.20;90.30;;;;;;5087135;28;19936;-62
2023/10/30 14:21:51;;;;;;;;;;;14.20;90.20;;;;;;5089298;28;19982;-64
2023/10/30 14:24:24;;;;;;;;;;;14.20;90.20;;;;;;5096499;28;19932;-64
2023/10/30 14:26:57;;;;;;;;;;;14.20;90.30;;;;;;5095605;28;20440;-64
2023/10/30 14:29:32;;;;;;;;;;;14.20;90.30;;;;;;5098690;28;19924;-65
2023/10/30 14:32:06;;;;;;;;;;;14.20;90.40;;;;;;5096761;28;20031;-65
2023/10/30 14:34:43;;;;;;;;;;;14.20;90.40;;;;;;5094052;28;20409;-64
2023/10/30 14:37:16;;;;;;;;;;;14.20;90.40;;;;;;5098021;28;19966;-70
2023/10/30 14:39:49;;;;;;;;;;;14.20;90.60;;;;;;5100295;28;19932;-71
2023/10/30 14:42:22;;;;;;;;;;;14.10;90.60;;;;;;5099607;28;19934;-70
2023/10/30 14:44:57;;;;;;;;;;;14.10;90.60;;;;;;5098670;28;19932;-70
2023/10/30 14:47:31;;;;;;;;;;;14.10;90.60;;;;;;5098435;28;19928;-71
2023/10/30 14:50:05;;;;;;;;;;;14.10;90.70;;;;;;5099321;28;20415;-70
2023/10/30 14:52:38;;;;;;;;;;;14.10;90.70;;;;;;5096191;28;19978;-70
2023/10/30 14:55:11;;;;;;;;;;;14.10;90.60;;;;;;5098669;28;19963;-71